createdAt,value
2018-05-16T00:01:42.993Z,14.20
2018-05-16T00:04:09.765Z,18.00
2018-05-16T00:06:35.789Z,13.80
2018-05-16T00:09:01.830Z,15.37
2018-05-16T00:11:27.843Z,14.90
2018-05-16T00:13:54.601Z,15.03
2018-05-16T00:16:21.343Z,10.87
2018-05-16T00:18:47.361Z,11.90
2018-05-16T00:21:14.118Z,12.63
2018-05-16T00:23:40.125Z,12.30
2018-05-16T00:26:06.135Z,18.03
2018-05-16T00:28:32.159Z,15.73
2018-05-16T00:30:58.177Z,16.23
2018-05-16T00:33:24.926Z,14.60
2018-05-16T00:35:51.683Z,18.87
2018-05-16T00:38:18.447Z,24.10
2018-05-16T00:40:45.206Z,27.13
2018-05-16T00:43:11.225Z,22.27
2018-05-16T00:45:38.047Z,29.00
2018-05-16T00:48:04.067Z,39.33
2018-05-16T00:50:30.087Z,29.40
2018-05-16T00:52:56.091Z,30.77
2018-05-16T00:55:22.849Z,32.07
2018-05-16T00:57:48.862Z,27.80
2018-05-16T01:00:14.882Z,31.20
2018-05-16T01:02:42.371Z,25.40
2018-05-16T01:05:09.161Z,28.10
2018-05-16T01:07:35.166Z,34.97
2018-05-16T01:10:01.932Z,35.93
2018-05-16T01:12:27.951Z,34.63
2018-05-16T01:14:54.706Z,39.83
2018-05-16T01:17:21.523Z,37.70
2018-05-16T01:19:47.542Z,40.50
2018-05-16T01:22:13.571Z,35.80
2018-05-16T01:24:39.614Z,41.47
2018-05-16T01:27:05.655Z,38.73
2018-05-16T01:29:31.710Z,41.30
2018-05-16T01:31:57.743Z,40.30
2018-05-16T01:34:23.776Z,43.57
2018-05-16T01:36:49.809Z,42.97
2018-05-16T01:39:15.838Z,30.80
2018-05-16T01:41:41.868Z,27.40
2018-05-16T01:44:07.895Z,25.13
2018-05-16T01:46:33.930Z,21.73
2018-05-16T01:49:12.298Z,16.50
2018-05-16T01:51:38.349Z,16.93
2018-05-16T01:54:05.130Z,16.70
2018-05-16T01:56:31.166Z,17.60
2018-05-16T01:58:57.204Z,13.97
2018-05-16T02:01:23.243Z,11.57
2018-05-16T02:03:49.270Z,10.20
2018-05-16T02:06:15.301Z,9.63
2018-05-16T02:08:41.306Z,14.80
2018-05-16T02:11:07.312Z,17.13
2018-05-16T02:13:33.332Z,13.27
2018-05-16T02:15:59.350Z,19.10
2018-05-16T02:18:25.363Z,22.00
2018-05-16T02:20:52.138Z,22.13
2018-05-16T02:23:18.157Z,22.57
2018-05-16T02:25:44.186Z,22.20
2018-05-16T02:28:10.944Z,25.73
2018-05-16T02:30:37.701Z,31.20
2018-05-16T02:33:03.714Z,34.77
2018-05-16T02:35:29.725Z,30.67
2018-05-16T02:37:55.735Z,40.77
2018-05-16T02:40:21.745Z,35.13
2018-05-16T02:42:47.768Z,35.90
2018-05-16T02:45:14.530Z,34.10
2018-05-16T02:47:40.645Z,39.43
2018-05-16T02:50:06.583Z,49.33
2018-05-16T02:52:33.341Z,42.47
2018-05-16T02:55:00.094Z,55.03
2018-05-16T02:57:26.851Z,36.33
2018-05-16T02:59:53.608Z,39.07
2018-05-16T03:02:20.363Z,43.60
2018-05-16T03:04:46.400Z,40.17
2018-05-16T03:07:12.426Z,42.53
2018-05-16T03:09:39.200Z,43.00
2018-05-16T03:12:05.236Z,44.67
2018-05-16T03:14:31.267Z,50.47
2018-05-16T03:16:57.312Z,44.43
2018-05-16T03:19:23.338Z,46.60
2018-05-16T03:21:49.382Z,54.63
2018-05-16T03:24:15.421Z,50.97
2018-05-16T03:26:41.464Z,46.17
2018-05-16T03:29:07.493Z,53.63
2018-05-16T03:31:33.524Z,48.77
2018-05-16T03:33:59.550Z,63.60
2018-05-16T03:36:25.590Z,43.90
2018-05-16T03:38:51.627Z,46.17
2018-05-16T03:41:17.675Z,49.57
2018-05-16T03:43:43.719Z,55.40
2018-05-16T03:46:09.749Z,56.40
2018-05-16T03:48:35.775Z,65.20
2018-05-16T03:51:01.807Z,58.37
2018-05-16T03:53:27.843Z,59.70
2018-05-16T03:55:53.909Z,56.27
2018-05-16T03:58:32.380Z,45.87
2018-05-16T04:01:11.603Z,46.87
2018-05-16T04:03:50.055Z,52.47
2018-05-16T04:06:16.835Z,50.00
2018-05-16T04:08:42.863Z,64.87
2018-05-16T04:11:08.910Z,72.10
2018-05-16T04:13:35.124Z,60.53
2018-05-16T04:16:00.986Z,60.03
2018-05-16T04:18:27.039Z,65.43
2018-05-16T04:20:53.069Z,70.40
2018-05-16T04:23:19.112Z,170.43
2018-05-16T04:25:45.174Z,107.80
2018-05-16T04:28:11.212Z,79.33
2018-05-16T04:30:37.247Z,82.07
2018-05-16T04:33:03.292Z,64.60
2018-05-16T04:35:29.412Z,76.70
2018-05-16T04:37:55.367Z,66.10
2018-05-16T04:40:21.392Z,61.27
2018-05-16T04:42:47.440Z,68.50
2018-05-16T04:45:14.211Z,69.77
2018-05-16T04:47:40.984Z,78.53
2018-05-16T04:50:07.026Z,74.53
2018-05-16T04:52:33.054Z,60.80
2018-05-16T04:54:59.085Z,70.37
2018-05-16T04:57:25.122Z,86.07
2018-05-16T04:59:51.158Z,94.53
2018-05-16T05:02:17.191Z,66.03
2018-05-16T05:04:43.214Z,64.93
2018-05-16T05:07:09.976Z,89.57
2018-05-16T05:09:35.986Z,87.50
2018-05-16T05:12:01.998Z,65.13
2018-05-16T05:14:28.014Z,79.03
2018-05-16T05:16:54.029Z,84.97
2018-05-16T05:19:20.051Z,70.03
2018-05-16T05:21:46.814Z,66.97
2018-05-16T05:24:12.843Z,66.83
2018-05-16T05:26:39.586Z,60.10
2018-05-16T05:29:06.349Z,80.63
2018-05-16T05:31:32.445Z,71.70
2018-05-16T05:33:58.468Z,84.77
2018-05-16T05:36:24.494Z,67.43
2018-05-16T05:38:50.519Z,182.63
2018-05-16T05:41:16.579Z,104.97
2018-05-16T05:43:42.601Z,66.23
2018-05-16T05:46:08.662Z,45.70
2018-05-16T05:48:36.222Z,40.90
2018-05-16T05:51:02.243Z,35.80
2018-05-16T05:53:28.262Z,41.90
2018-05-16T05:55:54.331Z,48.57
2018-05-16T05:58:20.349Z,37.10
2018-05-16T06:00:46.391Z,35.70
2018-05-16T06:03:12.386Z,35.63
2018-05-16T06:05:39.159Z,41.03
2018-05-16T06:08:05.198Z,33.80
2018-05-16T06:10:31.230Z,34.97
2018-05-16T06:12:57.257Z,37.20
2018-05-16T06:15:23.282Z,46.00
2018-05-16T06:17:50.094Z,36.80
2018-05-16T06:20:16.290Z,36.73
2018-05-16T06:22:42.398Z,32.23
2018-05-16T06:25:09.188Z,27.23
2018-05-16T06:27:35.224Z,26.73
2018-05-16T06:30:01.263Z,25.17
2018-05-16T06:32:27.303Z,28.63
2018-05-16T06:34:53.339Z,26.63
2018-05-16T06:37:19.395Z,26.47
2018-05-16T06:39:45.448Z,22.17
2018-05-16T06:42:11.495Z,26.00
2018-05-16T06:44:37.539Z,20.70
2018-05-16T06:47:04.354Z,30.30
2018-05-16T06:49:30.402Z,19.77
2018-05-16T06:51:56.436Z,14.50
2018-05-16T06:54:22.490Z,15.70
2018-05-16T06:56:48.519Z,17.23
2018-05-16T06:59:14.561Z,17.00
2018-05-16T07:01:40.590Z,18.73
2018-05-16T07:04:06.681Z,17.90
2018-05-16T07:06:33.421Z,13.07
2018-05-16T07:08:59.447Z,10.83
2018-05-16T07:11:26.203Z,11.27
2018-05-16T07:13:52.238Z,10.73
2018-05-16T07:16:18.249Z,10.57
2018-05-16T07:18:45.010Z,11.53
2018-05-16T07:21:11.842Z,13.47
2018-05-16T07:23:37.865Z,12.97
2018-05-16T07:26:03.886Z,13.97
2018-05-16T07:28:29.895Z,14.30
2018-05-16T07:30:55.929Z,16.90
2018-05-16T07:33:21.950Z,17.27
2018-05-16T07:35:48.731Z,19.07
2018-05-16T07:38:14.755Z,18.17
2018-05-16T07:40:40.787Z,18.93
2018-05-16T07:43:06.808Z,19.37
2018-05-16T07:45:33.570Z,18.07
2018-05-16T07:47:59.582Z,19.63
2018-05-16T07:50:26.345Z,19.77
2018-05-16T07:52:53.100Z,21.77
2018-05-16T07:55:19.862Z,20.80
2018-05-16T07:57:45.874Z,18.87
2018-05-16T08:00:11.898Z,14.13
2018-05-16T08:02:37.918Z,16.57
2018-05-16T08:05:03.959Z,15.13
2018-05-16T08:07:29.973Z,17.73
2018-05-16T08:09:55.985Z,19.97
2018-05-16T08:12:22.035Z,18.13
2018-05-16T08:14:48.761Z,13.73
2018-05-16T08:17:14.777Z,11.53
2018-05-16T08:19:41.541Z,11.50
2018-05-16T08:22:08.264Z,16.63
2018-05-16T08:24:34.282Z,7.50
2018-05-16T08:27:00.293Z,8.87
2018-05-16T08:29:26.313Z,8.33
2018-05-16T08:31:52.333Z,14.13
2018-05-16T08:34:18.361Z,8.50
2018-05-16T08:36:44.465Z,6.73
2018-05-16T08:39:10.432Z,7.03
2018-05-16T08:41:37.190Z,6.30
2018-05-16T08:44:03.945Z,7.00
2018-05-16T08:46:30.043Z,6.50
2018-05-16T08:48:56.045Z,6.13
2018-05-16T08:51:22.058Z,6.70
2018-05-16T08:53:48.065Z,6.57
2018-05-16T08:56:14.082Z,6.60
2018-05-16T08:58:40.120Z,7.30
2018-05-16T09:01:06.160Z,5.57
2018-05-16T09:03:32.170Z,6.73
2018-05-16T09:05:58.190Z,6.20
2018-05-16T09:08:24.198Z,6.87
2018-05-16T09:10:50.955Z,6.47
2018-05-16T09:13:16.972Z,6.77
2018-05-16T09:15:43.721Z,6.63
2018-05-16T09:18:09.727Z,7.57
2018-05-16T09:20:35.743Z,7.47
2018-05-16T09:23:01.746Z,6.90
2018-05-16T09:25:28.497Z,7.90
2018-05-16T09:27:55.249Z,7.80
2018-05-16T09:30:22.018Z,7.47
2018-05-16T09:32:48.025Z,7.03
2018-05-16T09:35:14.779Z,7.20
2018-05-16T09:37:41.533Z,7.03
2018-05-16T09:40:08.290Z,14.80
2018-05-16T09:42:35.035Z,7.37
2018-05-16T09:45:01.808Z,8.40
2018-05-16T09:47:27.881Z,9.20
2018-05-16T09:49:53.878Z,8.03
2018-05-16T09:52:19.891Z,7.50
2018-05-16T09:54:46.929Z,10.10
2018-05-16T09:57:13.057Z,6.83
2018-05-16T09:59:39.144Z,7.60
2018-05-16T10:02:05.166Z,8.40
2018-05-16T10:04:31.926Z,6.90
2018-05-16T10:06:58.002Z,9.70
2018-05-16T10:09:24.047Z,10.60
2018-05-16T10:11:50.120Z,9.53
2018-05-16T10:14:16.246Z,11.60
2018-05-16T10:16:42.408Z,12.80
2018-05-16T10:19:09.231Z,12.03
2018-05-16T10:21:35.340Z,13.80
2018-05-16T10:24:01.392Z,14.93
2018-05-16T10:26:27.516Z,13.83
2018-05-16T10:28:53.563Z,12.50
2018-05-16T10:31:19.674Z,12.00
2018-05-16T10:33:45.741Z,9.27
2018-05-16T10:36:11.813Z,9.30
2018-05-16T10:38:37.863Z,12.30
2018-05-16T10:41:03.914Z,8.77
2018-05-16T10:43:30.186Z,9.77
2018-05-16T10:45:56.283Z,9.80
2018-05-16T10:48:22.360Z,12.53
2018-05-16T10:50:48.410Z,10.70
2018-05-16T10:53:14.452Z,9.33
2018-05-16T10:55:40.606Z,9.80
2018-05-16T10:58:07.381Z,9.13
2018-05-16T11:00:33.429Z,9.10
2018-05-16T11:02:59.487Z,10.13
2018-05-16T11:05:25.565Z,10.33
2018-05-16T11:07:52.433Z,15.87
2018-05-16T11:10:19.219Z,11.40
2018-05-16T11:12:45.306Z,13.60
2018-05-16T11:15:12.106Z,13.13
2018-05-16T11:17:38.152Z,13.60
2018-05-16T11:20:04.227Z,16.50
2018-05-16T11:22:31.073Z,13.10
2018-05-16T11:24:57.117Z,10.57
2018-05-16T11:27:23.153Z,10.60
2018-05-16T11:29:49.196Z,9.57
2018-05-16T11:32:15.229Z,10.30
2018-05-16T11:34:41.293Z,10.57
2018-05-16T11:37:08.047Z,8.40
2018-05-16T11:39:34.271Z,9.57
2018-05-16T11:42:01.045Z,8.97
2018-05-16T11:44:27.078Z,7.70
2018-05-16T11:46:53.113Z,8.00
2018-05-16T11:49:19.168Z,8.10
2018-05-16T11:51:45.214Z,7.57
2018-05-16T11:54:11.382Z,8.30
2018-05-16T11:56:37.422Z,16.00
2018-05-16T11:59:03.673Z,9.50
2018-05-16T12:01:30.439Z,12.50
2018-05-16T12:03:57.184Z,9.13
2018-05-16T12:06:23.977Z,10.43
2018-05-16T12:08:50.186Z,10.80
2018-05-16T12:11:16.929Z,11.97
2018-05-16T12:13:43.677Z,10.83
2018-05-16T12:16:10.435Z,15.17
2018-05-16T12:18:37.196Z,10.60
2018-05-16T12:21:03.957Z,9.73
2018-05-16T12:23:29.979Z,7.60
2018-05-16T12:25:56.746Z,8.47
2018-05-16T12:28:22.774Z,8.17
2018-05-16T12:30:48.818Z,8.67
2018-05-16T12:33:14.842Z,7.50
2018-05-16T12:35:41.599Z,5.70
2018-05-16T12:38:07.633Z,6.03
2018-05-16T12:40:34.444Z,5.60
2018-05-16T12:43:12.893Z,6.40
2018-05-16T12:45:38.915Z,7.00
2018-05-16T12:48:04.952Z,6.20
2018-05-16T12:50:30.970Z,5.70
2018-05-16T12:52:56.998Z,5.53
2018-05-16T12:55:23.045Z,5.80
2018-05-16T12:57:49.058Z,6.70
2018-05-16T13:00:15.074Z,7.30
2018-05-16T13:02:41.834Z,6.87
2018-05-16T13:05:08.591Z,8.80
2018-05-16T13:07:34.626Z,6.70
2018-05-16T13:10:00.650Z,6.73
2018-05-16T13:12:26.709Z,7.40
2018-05-16T13:14:52.722Z,7.60
2018-05-16T13:17:19.516Z,8.63
2018-05-16T13:19:45.545Z,7.53
2018-05-16T13:22:11.570Z,6.97
2018-05-16T13:24:37.663Z,8.60
2018-05-16T13:27:03.733Z,7.67
2018-05-16T13:29:29.748Z,7.90
2018-05-16T13:31:56.511Z,9.27
2018-05-16T13:34:22.602Z,8.10
2018-05-16T13:36:48.614Z,8.77
2018-05-16T13:39:14.638Z,8.77
2018-05-16T13:41:40.673Z,7.83
2018-05-16T13:44:06.706Z,8.20
2018-05-16T13:46:32.856Z,9.33
2018-05-16T13:49:00.343Z,8.63
2018-05-16T13:51:26.361Z,7.10
2018-05-16T13:53:52.436Z,7.13
2018-05-16T13:56:18.449Z,11.80
2018-05-16T13:58:44.525Z,7.27
2018-05-16T14:01:10.678Z,8.87
2018-05-16T14:03:37.438Z,8.00
2018-05-16T14:06:03.490Z,7.10
2018-05-16T14:08:29.622Z,7.40
2018-05-16T14:10:55.698Z,8.60
2018-05-16T14:13:21.782Z,8.20
2018-05-16T14:15:48.558Z,9.00
2018-05-16T14:18:14.604Z,12.63
2018-05-16T14:20:40.654Z,10.30
2018-05-16T14:23:06.703Z,10.40
2018-05-16T14:25:32.762Z,11.03
2018-05-16T14:27:58.801Z,12.40
2018-05-16T14:30:24.837Z,15.13
2018-05-16T14:32:50.893Z,14.30
2018-05-16T14:35:17.681Z,15.70
2018-05-16T14:37:43.717Z,20.53
2018-05-16T14:40:09.802Z,14.97
2018-05-16T14:42:36.687Z,19.53
2018-05-16T14:45:02.641Z,18.50
2018-05-16T14:47:28.762Z,23.70
2018-05-16T14:49:54.880Z,22.67
2018-05-16T14:52:21.686Z,15.60
2018-05-16T14:54:47.742Z,55.90
2018-05-16T14:57:13.793Z,23.60
2018-05-16T14:59:39.850Z,18.63
2018-05-16T15:02:06.636Z,12.10
2018-05-16T15:04:32.678Z,6.53
2018-05-16T15:06:58.749Z,5.97
2018-05-16T15:09:25.541Z,5.70
2018-05-16T15:11:52.301Z,9.40
2018-05-16T15:14:18.330Z,8.30
2018-05-16T15:16:44.569Z,8.30
2018-05-16T15:19:11.329Z,7.47
2018-05-16T15:21:37.383Z,4.87
2018-05-16T15:24:03.403Z,4.27
2018-05-16T15:26:29.415Z,7.80
2018-05-16T15:28:56.203Z,7.97
2018-05-16T15:31:22.266Z,6.90
2018-05-16T15:33:48.282Z,3.60
2018-05-16T15:36:14.287Z,4.93
2018-05-16T15:38:41.045Z,8.13
2018-05-16T15:41:07.059Z,5.17
2018-05-16T15:43:33.113Z,33.73
2018-05-16T15:45:59.866Z,27.00
2018-05-16T15:51:18.378Z,8.00
2018-05-16T15:53:44.425Z,9.40
2018-05-16T15:56:10.455Z,6.63
2018-05-16T15:58:36.472Z,5.03
2018-05-16T16:01:03.289Z,3.97
2018-05-16T16:03:29.373Z,4.20
2018-05-16T16:05:55.490Z,4.17
2018-05-16T16:08:22.277Z,4.40
2018-05-16T16:10:48.377Z,4.10
2018-05-16T16:13:15.164Z,4.50
2018-05-16T16:15:41.205Z,4.20
2018-05-16T16:18:07.245Z,4.60
2018-05-16T16:20:33.291Z,5.27
2018-05-16T16:22:59.327Z,3.70
2018-05-16T16:25:25.370Z,6.20
2018-05-16T16:27:51.546Z,9.20
2018-05-16T16:30:17.599Z,4.57
2018-05-16T16:32:44.458Z,5.00
2018-05-16T16:35:11.249Z,6.00
2018-05-16T16:37:37.367Z,4.90
2018-05-16T16:40:03.475Z,4.97
2018-05-16T16:42:30.265Z,4.07
2018-05-16T16:44:56.446Z,4.50
2018-05-16T16:47:23.230Z,5.17
2018-05-16T16:49:50.046Z,5.10
2018-05-16T16:52:16.128Z,4.90
2018-05-16T16:54:42.218Z,4.77
2018-05-16T16:57:08.326Z,4.60
2018-05-16T16:59:34.411Z,4.83
2018-05-16T17:02:00.459Z,4.80
2018-05-16T17:04:27.256Z,4.77
2018-05-16T17:06:53.313Z,5.70
2018-05-16T17:09:19.435Z,6.10
2018-05-16T17:11:45.414Z,6.73
2018-05-16T17:14:11.554Z,7.60
2018-05-16T17:16:38.371Z,7.20
2018-05-16T17:19:04.422Z,8.47
2018-05-16T17:21:30.482Z,8.57
2018-05-16T17:23:58.167Z,9.70
2018-05-16T17:26:24.359Z,9.27
2018-05-16T17:28:50.421Z,12.90
2018-05-16T17:31:16.462Z,11.23
2018-05-16T17:33:42.513Z,13.87
2018-05-16T17:36:08.631Z,11.63
2018-05-16T17:38:34.671Z,13.83
2018-05-16T17:41:00.746Z,13.53
2018-05-16T17:43:27.530Z,17.47
2018-05-16T17:45:53.639Z,19.80
2018-05-16T17:48:19.751Z,17.30
2018-05-16T17:50:46.630Z,19.83
2018-05-16T17:53:12.604Z,22.47
2018-05-16T17:55:38.672Z,19.83
2018-05-16T17:58:04.714Z,21.20
2018-05-16T18:00:30.767Z,20.07
2018-05-16T18:02:57.557Z,21.97
2018-05-16T18:05:23.617Z,17.70
2018-05-16T18:07:49.636Z,19.07
2018-05-16T18:10:15.664Z,20.10
2018-05-16T18:12:41.681Z,26.33
2018-05-16T18:15:20.083Z,27.73
2018-05-16T18:17:46.101Z,29.83
2018-05-16T18:20:12.987Z,27.40
2018-05-16T18:22:39.809Z,24.20
2018-05-16T18:25:05.828Z,28.60
2018-05-16T18:27:31.861Z,30.30
2018-05-16T18:29:57.882Z,40.10
2018-05-16T18:32:23.907Z,35.40
2018-05-16T18:34:50.019Z,43.07
2018-05-16T18:37:16.822Z,41.23
2018-05-16T18:39:42.868Z,40.83
2018-05-16T18:42:08.922Z,42.40
2018-05-16T18:44:34.961Z,49.13
2018-05-16T18:47:01.018Z,51.57
2018-05-16T18:49:27.765Z,52.10
2018-05-16T18:51:54.610Z,52.50
2018-05-16T18:54:20.635Z,59.87
2018-05-16T18:56:46.657Z,64.20
2018-05-16T18:59:12.679Z,62.33
2018-05-16T19:01:38.704Z,59.17
2018-05-16T19:04:04.718Z,71.33
2018-05-16T19:06:31.526Z,88.20
2018-05-16T19:08:57.570Z,87.87
2018-05-16T19:11:23.625Z,72.53
2018-05-16T19:13:49.670Z,71.30
2018-05-16T19:16:16.456Z,89.03
2018-05-16T19:18:42.493Z,74.20
2018-05-16T19:21:08.580Z,69.83
2018-05-16T19:23:34.673Z,72.57
2018-05-16T19:26:00.724Z,68.23
2018-05-16T19:28:26.831Z,82.97
2018-05-16T19:30:52.869Z,62.27
2018-05-16T19:33:18.998Z,83.37
2018-05-16T19:35:45.883Z,66.37
2018-05-16T19:38:11.933Z,68.20
2018-05-16T19:40:38.087Z,68.63
2018-05-16T19:43:04.068Z,57.47
2018-05-16T19:45:30.095Z,52.67
2018-05-16T19:47:56.865Z,44.03
2018-05-16T19:50:22.894Z,32.57
2018-05-16T19:52:49.035Z,29.30
2018-05-16T19:55:14.998Z,28.13
2018-05-16T19:57:41.081Z,23.13
2018-05-16T20:00:07.106Z,22.23
2018-05-16T20:02:33.122Z,22.20
2018-05-16T20:04:59.185Z,23.87
2018-05-16T20:07:25.253Z,25.10
2018-05-16T20:09:51.273Z,33.10
2018-05-16T20:12:18.225Z,33.27
2018-05-16T20:14:45.074Z,36.17
2018-05-16T20:17:11.043Z,51.73
2018-05-16T20:19:37.078Z,57.10
2018-05-16T20:22:03.143Z,58.10
2018-05-16T20:24:29.202Z,74.30
2018-05-16T20:26:55.949Z,86.20
2018-05-16T20:29:22.166Z,100.90
2018-05-16T20:31:48.118Z,115.87
2018-05-16T20:34:14.265Z,100.13
2018-05-16T20:36:40.333Z,124.97
2018-05-16T20:39:07.154Z,124.40
2018-05-16T20:41:33.182Z,133.93
2018-05-16T20:43:59.256Z,134.93
2018-05-16T20:46:26.098Z,134.57
2018-05-16T20:48:52.165Z,113.30
2018-05-16T20:51:18.198Z,129.77
2018-05-16T20:53:44.991Z,128.97
2018-05-16T20:56:11.042Z,130.47
2018-05-16T20:58:37.114Z,110.30
2018-05-16T21:01:03.892Z,130.70
2018-05-16T21:03:29.933Z,126.70
2018-05-16T21:05:55.969Z,115.40
2018-05-16T21:08:22.007Z,151.73
2018-05-16T21:10:48.074Z,108.17
2018-05-16T21:13:14.183Z,98.90
2018-05-16T21:15:40.221Z,82.67
2018-05-16T21:18:06.272Z,81.17
2018-05-16T21:20:32.310Z,81.13
2018-05-16T21:22:58.361Z,77.10
2018-05-16T21:25:24.403Z,82.20
2018-05-16T21:27:50.446Z,72.10
2018-05-16T21:30:16.478Z,75.90
2018-05-16T21:32:42.517Z,82.10
2018-05-16T21:35:10.041Z,82.43
2018-05-16T21:37:36.096Z,73.10
2018-05-16T21:40:02.151Z,78.90
2018-05-16T21:42:28.210Z,86.67
2018-05-16T21:44:54.255Z,88.80
2018-05-16T21:47:21.060Z,82.00
2018-05-16T21:49:47.109Z,98.13
2018-05-16T21:52:13.200Z,84.07
2018-05-16T21:54:39.981Z,109.83
2018-05-16T21:57:06.029Z,95.47
2018-05-16T21:59:32.075Z,86.27
2018-05-16T22:01:58.115Z,87.10
2018-05-16T22:04:24.166Z,92.93
2018-05-16T22:06:50.197Z,91.33
2018-05-16T22:09:16.223Z,125.67
2018-05-16T22:11:44.887Z,141.50
2018-05-16T22:14:10.985Z,114.13
2018-05-16T22:16:36.983Z,130.60
2018-05-16T22:19:03.019Z,107.73
2018-05-16T22:21:29.049Z,89.20
2018-05-16T22:23:55.071Z,90.33
2018-05-16T22:26:21.115Z,81.47
2018-05-16T22:28:47.126Z,69.33
2018-05-16T22:31:19.134Z,80.90
2018-05-16T22:33:51.359Z,70.13
2018-05-16T22:36:24.146Z,77.47
2018-05-16T22:38:56.341Z,71.70
2018-05-16T22:41:29.201Z,66.80
2018-05-16T22:46:58.889Z,64.73
2018-05-16T22:49:25.670Z,66.10
2018-05-16T22:51:51.704Z,68.17
2018-05-16T22:54:17.750Z,68.87
2018-05-16T22:56:43.781Z,69.63
2018-05-16T22:59:09.814Z,71.30
2018-05-16T23:01:35.845Z,86.83
2018-05-16T23:04:01.970Z,84.40
2018-05-16T23:06:28.737Z,88.70
2018-05-16T23:08:54.771Z,83.47
2018-05-16T23:11:21.525Z,81.43
2018-05-16T23:13:47.546Z,98.77
2018-05-16T23:16:14.316Z,98.53
2018-05-16T23:18:40.333Z,100.70
2018-05-16T23:21:07.099Z,97.07
2018-05-16T23:23:33.119Z,98.63
2018-05-16T23:25:59.878Z,95.83
2018-05-16T23:28:26.625Z,90.50
2018-05-16T23:30:52.693Z,97.60
2018-05-16T23:33:18.663Z,80.20
2018-05-16T23:35:44.681Z,87.27
2018-05-16T23:38:10.694Z,100.70
2018-05-16T23:40:36.715Z,92.87
2018-05-16T23:43:03.487Z,89.03
2018-05-16T23:45:29.829Z,83.07
2018-05-16T23:47:55.841Z,81.20
2018-05-16T23:50:22.610Z,79.30
2018-05-16T23:52:49.361Z,82.73
2018-05-16T23:55:15.385Z,71.30
2018-05-16T23:57:42.137Z,77.70
